createdAt,value
2019-05-14T00:02:12.163Z,87.10
2019-05-14T00:04:44.419Z,85.90
2019-05-14T00:07:14.773Z,87.20
2019-05-14T00:09:45.260Z,86.00
2019-05-14T00:12:11.646Z,88.00
2019-05-14T00:14:40.155Z,89.40
2019-05-14T00:17:11.263Z,88.30
2019-05-14T00:19:41.703Z,90.10
2019-05-14T00:22:15.954Z,90.10
2019-05-14T00:24:43.326Z,90.40
2019-05-14T00:27:11.675Z,90.90
2019-05-14T00:29:54.883Z,91.00
2019-05-14T00:32:22.129Z,91.00
2019-05-14T00:34:51.377Z,91.80
2019-05-14T00:37:19.036Z,92.40
2019-05-14T00:39:47.742Z,92.80
2019-05-14T00:42:13.762Z,93.10
2019-05-14T00:44:53.810Z,93.90
2019-05-14T00:47:11.774Z,93.90
2019-05-14T00:49:48.668Z,94.50
2019-05-14T00:52:23.076Z,94.50
2019-05-14T00:54:52.227Z,94.70
2019-05-14T00:57:18.391Z,94.50
2019-05-14T00:59:52.576Z,95.70
2019-05-14T01:02:25.460Z,95.70
2019-05-14T01:04:52.658Z,96.20
2019-05-14T01:07:24.602Z,97.10
2019-05-14T01:09:52.616Z,97.00
2019-05-14T01:12:21.448Z,97.40
2019-05-14T01:14:47.691Z,97.70
2019-05-14T01:17:14.825Z,98.40
2019-05-14T01:19:42.738Z,98.40
2019-05-14T01:22:12.477Z,99.20
2019-05-14T01:24:38.805Z,98.40
2019-05-14T01:27:05.847Z,98.60
2019-05-14T01:29:33.857Z,99.20
2019-05-14T01:32:04.289Z,99.90
2019-05-14T01:34:32.620Z,99.90
2019-05-14T01:37:03.896Z,99.90
2019-05-14T01:39:32.336Z,99.90
2019-05-14T01:42:06.444Z,99.90
2019-05-14T01:44:41.234Z,99.90
2019-05-14T01:47:08.347Z,99.90
2019-05-14T01:49:42.532Z,99.90
2019-05-14T01:52:11.399Z,99.90
2019-05-14T01:54:37.603Z,99.90
2019-05-14T01:57:03.848Z,99.90
2019-05-14T01:59:32.163Z,99.90
2019-05-14T02:02:03.182Z,99.90
2019-05-14T02:04:31.158Z,99.90
2019-05-14T02:07:11.740Z,99.90
2019-05-14T02:09:41.959Z,99.90
2019-05-14T02:12:11.748Z,99.90
2019-05-14T02:14:42.377Z,99.90
2019-05-14T02:17:08.956Z,99.90
2019-05-14T02:19:35.449Z,99.90
2019-05-14T02:22:05.057Z,99.90
2019-05-14T02:24:32.224Z,99.90
2019-05-14T02:27:01.885Z,99.90
2019-05-14T02:29:31.995Z,99.90
2019-05-14T02:32:00.424Z,99.90
2019-05-14T02:34:30.459Z,99.90
2019-05-14T02:37:01.538Z,99.90
2019-05-14T02:39:31.576Z,99.90
2019-05-14T02:41:59.016Z,99.90
2019-05-14T02:44:33.119Z,99.90
2019-05-14T02:46:59.430Z,99.90
2019-05-14T02:49:30.702Z,99.90
2019-05-14T02:52:02.792Z,99.90
2019-05-14T02:54:44.052Z,99.90
2019-05-14T02:57:12.112Z,99.90
2019-05-14T02:59:39.397Z,99.90
2019-05-14T03:02:09.858Z,99.90
2019-05-14T03:04:39.560Z,99.90
2019-05-14T03:07:11.129Z,99.90
2019-05-14T03:09:50.169Z,99.90
2019-05-14T03:12:19.415Z,99.90
2019-05-14T03:14:53.549Z,99.90
2019-05-14T03:17:23.128Z,99.90
2019-05-14T03:19:53.264Z,99.90
2019-05-14T03:22:46.937Z,99.90
2019-05-14T03:25:10.041Z,99.90
2019-05-14T03:27:34.449Z,99.90
2019-05-14T03:30:12.223Z,99.90
2019-05-14T03:32:42.409Z,99.90
2019-05-14T03:35:15.321Z,99.90
2019-05-14T03:37:43.940Z,99.90
2019-05-14T03:40:19.578Z,99.90
2019-05-14T03:42:49.010Z,99.90
2019-05-14T03:45:22.526Z,99.90
2019-05-14T03:47:51.039Z,99.90
2019-05-14T03:50:24.384Z,99.90
2019-05-14T03:53:04.084Z,99.90
2019-05-14T03:55:31.169Z,99.90
2019-05-14T03:57:59.404Z,99.90
2019-05-14T04:00:50.089Z,99.90
2019-05-14T04:03:21.037Z,99.90
2019-05-14T04:05:52.223Z,99.90
2019-05-14T04:08:33.177Z,99.90
2019-05-14T04:11:02.146Z,99.90
2019-05-14T04:13:40.808Z,99.90
2019-05-14T04:16:11.880Z,99.90
2019-05-14T04:18:50.117Z,99.90
2019-05-14T04:21:23.075Z,99.90
2019-05-14T04:23:51.568Z,99.90
2019-05-14T04:26:21.979Z,99.90
2019-05-14T04:28:50.186Z,99.90
2019-05-14T04:31:29.815Z,99.90
2019-05-14T04:34:01.418Z,99.90
2019-05-14T04:36:30.252Z,99.90
2019-05-14T04:39:00.601Z,99.90
2019-05-14T04:41:25.653Z,99.90
2019-05-14T04:44:03.206Z,99.90
2019-05-14T04:46:31.171Z,99.90
2019-05-14T04:49:04.504Z,99.90
2019-05-14T04:51:32.598Z,99.90
2019-05-14T04:54:01.225Z,99.90
2019-05-14T04:56:30.224Z,99.90
2019-05-14T04:58:58.846Z,99.90
2019-05-14T05:01:32.112Z,99.90
2019-05-14T05:03:59.068Z,99.90
2019-05-14T05:06:35.220Z,99.90
2019-05-14T05:09:05.798Z,99.90
2019-05-14T05:11:33.349Z,99.90
2019-05-14T05:14:01.544Z,99.90
2019-05-14T05:16:29.988Z,99.90
2019-05-14T05:18:59.164Z,99.90
2019-05-14T05:21:33.273Z,99.90
2019-05-14T05:24:02.595Z,99.90
2019-05-14T05:26:29.745Z,99.90
2019-05-14T05:29:05.541Z,99.90
2019-05-14T05:31:24.764Z,99.90
2019-05-14T05:33:58.265Z,99.90
2019-05-14T05:36:31.864Z,99.90
2019-05-14T05:38:59.528Z,99.90
2019-05-14T05:41:31.082Z,99.90
2019-05-14T05:44:08.013Z,99.90
2019-05-14T05:46:33.984Z,99.90
2019-05-14T05:49:07.886Z,99.90
2019-05-14T05:51:34.026Z,99.90
2019-05-14T05:54:04.191Z,99.90
2019-05-14T05:56:35.534Z,99.90
2019-05-14T05:59:01.784Z,99.90
2019-05-14T06:01:41.811Z,99.90
2019-05-14T06:04:11.994Z,99.90
2019-05-14T06:06:41.083Z,99.90
2019-05-14T06:09:09.576Z,99.90
2019-05-14T06:11:39.556Z,99.90
2019-05-14T06:14:12.988Z,99.90
2019-05-14T06:16:38.979Z,99.90
2019-05-14T06:19:08.014Z,99.90
2019-05-14T06:21:41.061Z,99.90
2019-05-14T06:24:10.207Z,99.90
2019-05-14T06:26:39.400Z,99.90
2019-05-14T06:29:10.532Z,99.90
2019-05-14T06:31:49.353Z,99.90
2019-05-14T06:34:28.898Z,99.90
2019-05-14T06:36:54.787Z,99.90
2019-05-14T06:39:38.827Z,99.90
2019-05-14T06:42:15.661Z,99.90
2019-05-14T06:44:44.883Z,99.90
2019-05-14T06:47:15.112Z,99.90
2019-05-14T06:49:40.596Z,99.90
2019-05-14T06:52:08.975Z,99.90
2019-05-14T06:54:49.912Z,99.90
2019-05-14T06:57:31.252Z,99.90
2019-05-14T06:59:58.929Z,99.90
2019-05-14T07:02:33.426Z,99.90
2019-05-14T07:05:11.808Z,99.90
2019-05-14T07:07:40.588Z,99.90
2019-05-14T07:10:19.639Z,99.90
2019-05-14T07:12:50.089Z,99.90
2019-05-14T07:15:18.306Z,99.90
2019-05-14T07:17:53.346Z,99.90
2019-05-14T07:20:19.623Z,99.90
2019-05-14T07:23:01.901Z,99.90
2019-05-14T07:25:31.024Z,99.90
2019-05-14T07:27:58.323Z,99.90
2019-05-14T07:30:30.335Z,99.90
2019-05-14T07:32:58.700Z,99.90
2019-05-14T07:35:25.958Z,99.90
2019-05-14T07:37:54.139Z,99.90
2019-05-14T07:40:21.175Z,99.90
2019-05-14T07:42:50.305Z,99.90
2019-05-14T07:45:18.447Z,99.90
2019-05-14T07:47:49.167Z,99.90
2019-05-14T07:50:19.632Z,99.90
2019-05-14T07:52:46.070Z,99.90
2019-05-14T07:55:13.984Z,99.90
2019-05-14T07:57:40.091Z,99.90
2019-05-14T08:00:15.007Z,99.90
2019-05-14T08:02:44.108Z,99.90
2019-05-14T08:05:12.588Z,99.90
2019-05-14T08:07:44.519Z,99.90
2019-05-14T08:10:13.405Z,99.90
2019-05-14T08:12:42.745Z,99.90
2019-05-14T08:15:48.844Z,99.90
2019-05-14T08:18:20.952Z,99.90
2019-05-14T08:21:01.728Z,99.50
2019-05-14T08:23:34.991Z,99.90
2019-05-14T08:26:04.835Z,99.80
2019-05-14T08:28:31.767Z,97.80
2019-05-14T08:30:59.834Z,96.60
2019-05-14T08:33:25.911Z,95.00
2019-05-14T08:36:00.791Z,94.70
2019-05-14T08:38:28.455Z,94.20
2019-05-14T08:41:01.097Z,92.90
2019-05-14T08:43:35.296Z,92.30
2019-05-14T08:46:05.396Z,92.10
2019-05-14T08:48:44.607Z,92.30
2019-05-14T08:51:11.713Z,92.10
2019-05-14T08:53:50.371Z,90.80
2019-05-14T08:56:19.352Z,90.70
2019-05-14T08:58:49.141Z,90.20
2019-05-14T09:01:15.634Z,89.00
2019-05-14T09:03:43.025Z,88.50
2019-05-14T09:06:09.384Z,88.50
2019-05-14T09:08:38.921Z,85.60
2019-05-14T09:11:09.870Z,83.20
2019-05-14T09:13:39.719Z,80.80
2019-05-14T09:16:08.976Z,77.70
2019-05-14T09:18:38.480Z,73.80
2019-05-14T09:21:05.743Z,70.60
2019-05-14T09:23:43.471Z,67.30
2019-05-14T09:26:14.527Z,67.30
2019-05-14T09:28:40.611Z,66.70
2019-05-14T09:31:22.524Z,62.80
2019-05-14T09:34:14.055Z,59.20
2019-05-14T09:36:40.324Z,59.60
2019-05-14T09:39:11.982Z,60.00
2019-05-14T09:41:42.748Z,59.10
2019-05-14T09:44:13.004Z,59.50
2019-05-14T09:46:45.312Z,60.90
2019-05-14T09:49:13.340Z,59.00
2019-05-14T09:51:42.444Z,60.00
2019-05-14T09:54:08.744Z,62.30
2019-05-14T09:56:39.347Z,61.60
2019-05-14T09:59:09.166Z,61.10
2019-05-14T10:01:50.638Z,59.20
2019-05-14T10:04:19.744Z,59.50
2019-05-14T10:06:48.536Z,59.20
2019-05-14T10:09:31.110Z,59.70
2019-05-14T10:11:57.985Z,61.30
2019-05-14T10:14:25.609Z,60.20
2019-05-14T10:16:52.078Z,59.50
2019-05-14T10:19:23.399Z,59.00
2019-05-14T10:22:08.104Z,58.00
2019-05-14T10:24:43.420Z,58.40
2019-05-14T10:27:11.573Z,58.30
2019-05-14T10:29:49.539Z,58.00
2019-05-14T10:32:18.818Z,57.30
2019-05-14T10:34:45.310Z,57.30
2019-05-14T10:37:19.329Z,58.30
2019-05-14T10:39:45.707Z,59.50
2019-05-14T10:42:21.854Z,61.00
2019-05-14T10:44:49.263Z,61.30
2019-05-14T10:47:18.969Z,59.50
2019-05-14T10:49:46.231Z,59.50
2019-05-14T10:52:13.453Z,60.10
2019-05-14T10:54:55.010Z,60.40
2019-05-14T10:57:10.693Z,59.40
2019-05-14T10:59:37.031Z,58.70
2019-05-14T11:02:13.426Z,57.90
2019-05-14T11:04:43.764Z,58.40
2019-05-14T11:07:12.810Z,57.40
2019-05-14T11:09:38.904Z,55.20
2019-05-14T11:12:08.820Z,54.80
2019-05-14T11:14:45.631Z,51.70
2019-05-14T11:17:12.131Z,51.20
2019-05-14T11:19:40.601Z,52.50
2019-05-14T11:22:11.176Z,51.30
2019-05-14T11:24:40.203Z,51.50
2019-05-14T11:27:12.956Z,51.40
2019-05-14T11:29:46.266Z,50.90
2019-05-14T11:32:19.765Z,51.10
2019-05-14T11:35:04.109Z,49.50
2019-05-14T11:37:24.719Z,49.80
2019-05-14T11:40:02.591Z,49.60
2019-05-14T11:42:35.150Z,50.00
2019-05-14T11:45:11.128Z,50.50
2019-05-14T11:47:38.005Z,50.90
2019-05-14T11:50:09.912Z,49.50
2019-05-14T11:52:39.159Z,49.30
2019-05-14T11:55:09.039Z,49.00
2019-05-14T11:57:37.538Z,50.00
2019-05-14T12:00:08.524Z,51.20
2019-05-14T12:02:34.869Z,50.70
2019-05-14T12:05:05.074Z,50.60
2019-05-14T12:07:42.175Z,51.10
2019-05-14T12:10:29.136Z,51.30
2019-05-14T12:12:59.996Z,50.00
2019-05-14T12:15:26.428Z,48.70
2019-05-14T12:17:59.490Z,48.60
2019-05-14T12:20:29.610Z,48.00
2019-05-14T12:23:04.763Z,48.30
2019-05-14T12:25:31.993Z,48.50
2019-05-14T12:27:59.223Z,49.30
2019-05-14T12:30:30.301Z,49.50
2019-05-14T12:32:59.018Z,50.20
2019-05-14T12:35:40.408Z,49.00
2019-05-14T12:38:10.640Z,48.60
2019-05-14T12:40:48.413Z,47.80
2019-05-14T12:43:28.172Z,49.10
2019-05-14T12:45:54.498Z,48.90
2019-05-14T12:48:24.797Z,49.30
2019-05-14T12:50:54.314Z,49.70
2019-05-14T12:53:31.493Z,49.10
2019-05-14T12:56:00.121Z,49.00
2019-05-14T12:58:28.339Z,48.30
2019-05-14T13:00:55.114Z,47.30
2019-05-14T13:03:25.162Z,47.40
2019-05-14T13:05:58.568Z,47.40
2019-05-14T13:08:33.559Z,46.80
2019-05-14T13:11:05.386Z,45.90
2019-05-14T13:13:34.492Z,44.90
2019-05-14T13:16:19.174Z,43.70
2019-05-14T13:18:54.098Z,43.80
2019-05-14T13:21:31.143Z,44.40
2019-05-14T13:23:59.169Z,44.60
2019-05-14T13:26:32.699Z,43.90
2019-05-14T13:28:59.054Z,44.20
2019-05-14T13:31:34.737Z,42.70
2019-05-14T13:34:01.874Z,42.90
2019-05-14T13:36:44.546Z,44.80
2019-05-14T13:39:15.388Z,44.60
2019-05-14T13:41:55.153Z,43.70
2019-05-14T13:44:25.075Z,44.60
2019-05-14T13:46:53.430Z,43.50
2019-05-14T13:49:29.244Z,42.50
2019-05-14T13:51:55.135Z,42.10
2019-05-14T13:54:22.692Z,42.00
2019-05-14T13:56:48.795Z,41.10
2019-05-14T13:59:18.748Z,39.80
2019-05-14T14:01:48.691Z,40.60
2019-05-14T14:04:23.794Z,40.20
2019-05-14T14:07:00.867Z,39.90
2019-05-14T14:09:31.759Z,40.00
2019-05-14T14:12:04.333Z,41.00
2019-05-14T14:14:39.997Z,42.20
2019-05-14T14:17:08.990Z,41.80
2019-05-14T14:19:38.908Z,42.50
2019-05-14T14:22:10.606Z,43.30
2019-05-14T14:24:48.761Z,42.90
2019-05-14T14:27:19.643Z,42.80
2019-05-14T14:29:51.653Z,41.00
2019-05-14T14:32:32.747Z,40.00
2019-05-14T14:35:02.553Z,39.20
2019-05-14T14:37:28.938Z,40.50
2019-05-14T14:40:02.436Z,40.40
2019-05-14T14:42:35.370Z,40.40
2019-05-14T14:45:08.429Z,38.90
2019-05-14T14:47:35.471Z,38.20
2019-05-14T14:50:05.181Z,38.40
2019-05-14T14:52:32.439Z,38.80
2019-05-14T14:55:02.125Z,38.30
2019-05-14T14:57:31.385Z,37.70
2019-05-14T15:00:19.273Z,37.00
2019-05-14T15:02:49.595Z,37.00
2019-05-14T15:05:19.725Z,37.50
2019-05-14T15:07:49.697Z,38.20
2019-05-14T15:10:20.098Z,38.80
2019-05-14T15:12:50.699Z,39.00
2019-05-14T15:15:18.645Z,39.10
2019-05-14T15:17:48.887Z,40.20
2019-05-14T15:20:19.268Z,40.20
2019-05-14T15:22:48.695Z,40.30
2019-05-14T15:25:14.434Z,40.10
2019-05-14T15:27:49.053Z,39.30
2019-05-14T15:30:21.180Z,39.00
2019-05-14T15:32:51.115Z,38.60
2019-05-14T15:35:22.140Z,38.70
2019-05-14T15:38:01.330Z,39.40
2019-05-14T15:40:39.262Z,40.20
2019-05-14T15:43:18.787Z,40.10
2019-05-14T15:45:48.750Z,40.20
2019-05-14T15:48:19.932Z,40.10
2019-05-14T15:50:50.215Z,40.40
2019-05-14T15:53:19.580Z,40.80
2019-05-14T15:55:45.849Z,41.10
2019-05-14T15:58:20.878Z,41.20
2019-05-14T16:00:45.346Z,40.20
2019-05-14T16:03:14.350Z,40.00
2019-05-14T16:05:51.620Z,39.90
2019-05-14T16:08:18.826Z,40.30
2019-05-14T16:10:45.968Z,40.30
2019-05-14T16:13:21.253Z,40.90
2019-05-14T16:15:48.715Z,41.00
2019-05-14T16:18:19.655Z,41.20
2019-05-14T16:20:45.795Z,41.80
2019-05-14T16:23:18.803Z,41.50
2019-05-14T16:25:48.882Z,42.20
2019-05-14T16:28:20.998Z,41.60
2019-05-14T16:30:49.593Z,41.80
2019-05-14T16:33:18.384Z,40.70
2019-05-14T16:35:51.317Z,40.20
2019-05-14T16:38:28.515Z,40.50
2019-05-14T16:41:09.812Z,41.20
2019-05-14T16:43:35.916Z,41.10
2019-05-14T16:46:05.182Z,41.20
2019-05-14T16:48:35.459Z,41.50
2019-05-14T16:51:05.100Z,41.60
2019-05-14T16:53:33.238Z,41.90
2019-05-14T16:56:08.374Z,42.00
2019-05-14T16:58:38.333Z,41.60
2019-05-14T17:01:10.108Z,41.80
2019-05-14T17:03:39.285Z,41.30
2019-05-14T17:06:14.330Z,41.00
2019-05-14T17:08:43.354Z,41.80
2019-05-14T17:11:18.316Z,41.70
2019-05-14T17:13:49.214Z,41.70
2019-05-14T17:16:15.553Z,41.40
2019-05-14T17:18:59.263Z,41.40
2019-05-14T17:21:28.119Z,40.90
2019-05-14T17:24:01.644Z,40.40
2019-05-14T17:26:38.060Z,40.60
2019-05-14T17:29:09.557Z,40.50
2019-05-14T17:31:42.257Z,40.70
2019-05-14T17:34:09.471Z,41.00
2019-05-14T17:36:41.737Z,41.20
2019-05-14T17:39:08.654Z,41.50
2019-05-14T17:41:48.694Z,41.60
2019-05-14T17:44:24.595Z,41.80
2019-05-14T17:47:07.213Z,42.40
2019-05-14T17:49:38.941Z,43.00
2019-05-14T17:52:14.077Z,43.40
2019-05-14T17:54:42.184Z,43.70
2019-05-14T17:57:12.309Z,43.80
2019-05-14T17:59:39.116Z,44.00
2019-05-14T18:02:09.260Z,44.20
2019-05-14T18:04:40.410Z,44.60
2019-05-14T18:07:08.792Z,44.80
2019-05-14T18:09:36.189Z,44.70
2019-05-14T18:12:08.680Z,44.40
2019-05-14T18:14:44.408Z,44.50
2019-05-14T18:17:18.977Z,45.00
2019-05-14T18:19:48.328Z,45.00
2019-05-14T18:22:14.673Z,45.10
2019-05-14T18:24:59.192Z,45.70
2019-05-14T18:27:32.550Z,46.50
2019-05-14T18:30:30.677Z,47.40
2019-05-14T18:32:59.363Z,47.90
2019-05-14T18:35:46.458Z,48.60
2019-05-14T18:38:15.506Z,49.00
2019-05-14T18:40:59.475Z,49.30
2019-05-14T18:43:30.079Z,49.70
2019-05-14T18:45:58.670Z,50.00
2019-05-14T18:48:32.107Z,50.20
2019-05-14T18:51:00.993Z,50.40
2019-05-14T18:53:39.422Z,50.80
2019-05-14T18:56:20.271Z,51.10
2019-05-14T18:58:40.861Z,51.60
2019-05-14T19:01:19.581Z,51.90
2019-05-14T19:03:49.307Z,52.50
2019-05-14T19:06:28.402Z,53.00
2019-05-14T19:09:11.534Z,53.60
2019-05-14T19:11:39.727Z,54.20
2019-05-14T19:14:11.918Z,55.30
2019-05-14T19:16:58.476Z,55.90
2019-05-14T19:19:25.984Z,56.90
2019-05-14T19:22:03.266Z,57.80
2019-05-14T19:24:29.444Z,58.90
2019-05-14T19:27:00.977Z,59.70
2019-05-14T19:29:36.130Z,61.30
2019-05-14T19:32:19.020Z,62.70
2019-05-14T19:34:56.883Z,63.90
2019-05-14T19:37:40.354Z,65.40
2019-05-14T19:40:11.833Z,66.90
2019-05-14T19:42:43.394Z,68.80
2019-05-14T19:45:17.753Z,70.20
2019-05-14T19:47:45.068Z,72.00
2019-05-14T19:50:22.683Z,73.20
2019-05-14T19:52:50.025Z,74.10
2019-05-14T19:55:19.065Z,75.00
2019-05-14T19:57:48.787Z,74.90
2019-05-14T20:00:20.211Z,75.50
2019-05-14T20:02:48.605Z,75.90
2019-05-14T20:05:22.928Z,76.60
2019-05-14T20:07:53.211Z,77.00
2019-05-14T20:10:21.600Z,77.80
2019-05-14T20:12:48.266Z,78.30
2019-05-14T20:15:14.699Z,78.70
2019-05-14T20:18:02.898Z,79.50
2019-05-14T20:20:30.020Z,79.30
2019-05-14T20:23:14.083Z,79.20
2019-05-14T20:25:53.631Z,79.70
2019-05-14T20:28:24.345Z,79.60
2019-05-14T20:30:53.110Z,80.80
2019-05-14T20:33:19.837Z,81.40
2019-05-14T20:36:02.105Z,81.80
2019-05-14T20:38:38.832Z,82.90
2019-05-14T20:41:08.535Z,83.90
2019-05-14T20:43:38.543Z,84.70
2019-05-14T20:46:09.886Z,85.20
2019-05-14T20:48:44.318Z,85.40
2019-05-14T20:51:14.529Z,87.30
2019-05-14T20:53:55.092Z,87.60
2019-05-14T20:56:33.307Z,87.40
2019-05-14T20:59:00.722Z,88.40
2019-05-14T21:01:29.136Z,89.40
2019-05-14T21:03:59.218Z,89.60
2019-05-14T21:06:39.032Z,89.40
2019-05-14T21:09:29.588Z,89.60
2019-05-14T21:12:03.034Z,89.50
2019-05-14T21:14:31.388Z,90.60
2019-05-14T21:16:58.521Z,91.10
2019-05-14T21:19:38.835Z,91.50
2019-05-14T21:22:21.384Z,91.70
2019-05-14T21:24:54.216Z,91.70
2019-05-14T21:27:44.549Z,92.10
2019-05-14T21:30:03.820Z,92.30
2019-05-14T21:32:42.431Z,93.10
2019-05-14T21:35:09.087Z,93.60
2019-05-14T21:37:35.321Z,93.60
2019-05-14T21:40:18.643Z,93.90
2019-05-14T21:42:51.530Z,93.80
2019-05-14T21:45:30.866Z,93.30
2019-05-14T21:47:59.414Z,93.80
2019-05-14T21:50:47.332Z,93.70
2019-05-14T21:53:24.250Z,93.00
2019-05-14T21:55:58.710Z,93.60
2019-05-14T21:58:25.003Z,94.20
2019-05-14T22:00:59.047Z,94.70
2019-05-14T22:03:35.695Z,95.20
2019-05-14T22:05:59.322Z,95.90
2019-05-14T22:08:34.505Z,95.20
2019-05-14T22:11:13.758Z,94.80
2019-05-14T22:13:41.864Z,95.00
2019-05-14T22:16:11.164Z,95.40
2019-05-14T22:18:39.338Z,95.50
2019-05-14T22:21:08.817Z,95.70
2019-05-14T22:23:43.199Z,96.40
2019-05-14T22:26:11.516Z,95.60
2019-05-14T22:28:42.511Z,96.50
2019-05-14T22:31:16.405Z,96.90
2019-05-14T22:33:42.279Z,96.50
2019-05-14T22:36:21.476Z,97.10
2019-05-14T22:38:48.205Z,97.00
2019-05-14T22:41:18.406Z,96.90
2019-05-14T22:43:48.806Z,97.50
2019-05-14T22:46:22.602Z,97.00
2019-05-14T22:48:52.800Z,97.00
2019-05-14T22:51:23.184Z,97.30
2019-05-14T22:53:52.109Z,98.60
2019-05-14T22:56:41.843Z,98.40
2019-05-14T22:59:07.930Z,99.40
2019-05-14T23:01:38.458Z,98.30
2019-05-14T23:04:14.541Z,98.30
2019-05-14T23:06:43.594Z,98.60
2019-05-14T23:09:09.869Z,99.30
2019-05-14T23:11:42.611Z,98.80
2019-05-14T23:14:18.533Z,99.10
2019-05-14T23:16:49.003Z,99.50
2019-05-14T23:19:29.935Z,98.50
2019-05-14T23:21:53.984Z,98.60
2019-05-14T23:24:28.471Z,99.60
2019-05-14T23:26:58.504Z,99.30
2019-05-14T23:29:34.388Z,99.10
2019-05-14T23:32:04.688Z,98.30
2019-05-14T23:34:39.869Z,98.70
2019-05-14T23:37:13.827Z,98.80
2019-05-14T23:39:46.338Z,99.60
2019-05-14T23:42:15.163Z,99.70
2019-05-14T23:44:43.579Z,99.90
2019-05-14T23:47:26.087Z,99.90
2019-05-14T23:49:53.129Z,99.90
2019-05-14T23:52:31.161Z,99.90
2019-05-14T23:54:57.574Z,99.90
2019-05-14T23:57:23.754Z,99.90
2019-05-14T23:59:53.673Z,99.90
